sensor_id;sensor_type;location;lat;lon;timestamp;P1;durP1;ratioP1;P2;durP2;ratioP2
24567;SDS011;12731;52.182;8.716;2022-07-23T00:00:48;14.05;;;9.85;;
24567;SDS011;12731;52.182;8.716;2022-07-23T00:03:14;11.75;;;9.63;;
24567;SDS011;12731;52.182;8.716;2022-07-23T00:05:41;12.18;;;9.73;;
24567;SDS011;12731;52.182;8.716;2022-07-23T00:08:07;11.02;;;9.18;;
24567;SDS011;12731;52.182;8.716;2022-07-23T00:10:39;11.45;;;10.32;;
24567;SDS011;12731;52.182;8.716;2022-07-23T00:13:05;11.40;;;9.45;;
24567;SDS011;12731;52.182;8.716;2022-07-23T00:15:32;11.00;;;9.25;;
24567;SDS011;12731;52.182;8.716;2022-07-23T00:17:58;11.02;;;8.90;;
24567;SDS011;12731;52.182;8.716;2022-07-23T00:20:25;11.75;;;9.00;;
24567;SDS011;12731;52.182;8.716;2022-07-23T00:22:52;10.27;;;8.70;;
24567;SDS011;12731;52.182;8.716;2022-07-23T00:25:20;8.98;;;8.07;;
24567;SDS011;12731;52.182;8.716;2022-07-23T00:27:55;9.90;;;8.77;;
24567;SDS011;12731;52.182;8.716;2022-07-23T00:30:22;9.82;;;8.15;;
24567;SDS011;12731;52.182;8.716;2022-07-23T00:32:49;11.18;;;8.40;;
24567;SDS011;12731;52.182;8.716;2022-07-23T00:35:22;9.50;;;8.50;;
24567;SDS011;12731;52.182;8.716;2022-07-23T00:37:49;9.45;;;7.90;;
24567;SDS011;12731;52.182;8.716;2022-07-23T00:40:16;9.52;;;8.52;;
24567;SDS011;12731;52.182;8.716;2022-07-23T00:42:42;9.27;;;8.32;;
24567;SDS011;12731;52.182;8.716;2022-07-23T00:45:09;12.55;;;9.18;;
24567;SDS011;12731;52.182;8.716;2022-07-23T00:47:36;8.80;;;7.90;;
24567;SDS011;12731;52.182;8.716;2022-07-23T00:50:06;9.43;;;8.13;;
24567;SDS011;12731;52.182;8.716;2022-07-23T00:52:33;9.50;;;8.48;;
24567;SDS011;12731;52.182;8.716;2022-07-23T00:55:00;10.98;;;8.40;;
24567;SDS011;12731;52.182;8.716;2022-07-23T00:57:27;10.80;;;8.38;;
24567;SDS011;12731;52.182;8.716;2022-07-23T00:59:54;10.00;;;8.70;;
24567;SDS011;12731;52.182;8.716;2022-07-23T01:02:21;11.30;;;7.90;;
24567;SDS011;12731;52.182;8.716;2022-07-23T01:04:47;9.60;;;8.20;;
24567;SDS011;12731;52.182;8.716;2022-07-23T01:07:14;12.05;;;8.32;;
24567;SDS011;12731;52.182;8.716;2022-07-23T01:09:41;10.82;;;8.65;;
24567;SDS011;12731;52.182;8.716;2022-07-23T01:12:08;13.90;;;9.32;;
24567;SDS011;12731;52.182;8.716;2022-07-23T01:14:34;12.00;;;8.43;;
24567;SDS011;12731;52.182;8.716;2022-07-23T01:17:01;12.95;;;9.10;;
24567;SDS011;12731;52.182;8.716;2022-07-23T01:19:27;10.15;;;8.95;;
24567;SDS011;12731;52.182;8.716;2022-07-23T01:21:54;11.57;;;9.48;;
24567;SDS011;12731;52.182;8.716;2022-07-23T01:24:21;11.05;;;9.38;;
24567;SDS011;12731;52.182;8.716;2022-07-23T01:26:48;13.05;;;10.00;;
24567;SDS011;12731;52.182;8.716;2022-07-23T01:29:16;10.68;;;9.57;;
24567;SDS011;12731;52.182;8.716;2022-07-23T01:31:42;12.35;;;9.95;;
24567;SDS011;12731;52.182;8.716;2022-07-23T01:34:10;15.05;;;10.52;;
24567;SDS011;12731;52.182;8.716;2022-07-23T01:36:37;11.45;;;10.25;;
24567;SDS011;12731;52.182;8.716;2022-07-23T01:39:04;13.00;;;10.45;;
24567;SDS011;12731;52.182;8.716;2022-07-23T01:41:31;12.15;;;10.60;;
24567;SDS011;12731;52.182;8.716;2022-07-23T01:43:58;13.73;;;11.00;;
24567;SDS011;12731;52.182;8.716;2022-07-23T01:46:24;14.68;;;10.30;;
24567;SDS011;12731;52.182;8.716;2022-07-23T01:48:51;13.32;;;9.95;;
24567;SDS011;12731;52.182;8.716;2022-07-23T01:51:17;10.07;;;9.07;;
24567;SDS011;12731;52.182;8.716;2022-07-23T01:53:44;11.95;;;9.93;;
24567;SDS011;12731;52.182;8.716;2022-07-23T01:56:10;10.80;;;9.07;;
24567;SDS011;12731;52.182;8.716;2022-07-23T01:58:37;10.63;;;9.45;;
24567;SDS011;12731;52.182;8.716;2022-07-23T02:01:04;11.05;;;9.23;;
24567;SDS011;12731;52.182;8.716;2022-07-23T02:03:31;13.40;;;9.88;;
24567;SDS011;12731;52.182;8.716;2022-07-23T02:05:57;14.20;;;9.95;;
24567;SDS011;12731;52.182;8.716;2022-07-23T02:08:24;11.30;;;8.57;;
24567;SDS011;12731;52.182;8.716;2022-07-23T02:10:50;11.98;;;9.82;;
24567;SDS011;12731;52.182;8.716;2022-07-23T02:13:17;10.43;;;9.10;;
24567;SDS011;12731;52.182;8.716;2022-07-23T02:15:45;11.00;;;9.85;;
24567;SDS011;12731;52.182;8.716;2022-07-23T02:18:13;12.80;;;9.40;;
24567;SDS011;12731;52.182;8.716;2022-07-23T02:20:39;10.63;;;8.88;;
24567;SDS011;12731;52.182;8.716;2022-07-23T02:23:06;9.93;;;8.93;;
24567;SDS011;12731;52.182;8.716;2022-07-23T02:25:33;10.30;;;8.88;;
24567;SDS011;12731;52.182;8.716;2022-07-23T02:27:59;11.50;;;8.55;;
24567;SDS011;12731;52.182;8.716;2022-07-23T02:30:26;9.98;;;8.95;;
24567;SDS011;12731;52.182;8.716;2022-07-23T02:32:52;10.68;;;8.40;;
24567;SDS011;12731;52.182;8.716;2022-07-23T02:35:19;10.18;;;9.18;;
24567;SDS011;12731;52.182;8.716;2022-07-23T02:37:45;9.73;;;8.73;;
24567;SDS011;12731;52.182;8.716;2022-07-23T02:40:15;11.80;;;9.57;;
24567;SDS011;12731;52.182;8.716;2022-07-23T02:42:42;13.25;;;10.00;;
24567;SDS011;12731;52.182;8.716;2022-07-23T02:45:08;14.13;;;9.57;;
24567;SDS011;12731;52.182;8.716;2022-07-23T02:47:35;10.45;;;8.70;;
24567;SDS011;12731;52.182;8.716;2022-07-23T02:50:01;10.95;;;9.77;;
24567;SDS011;12731;52.182;8.716;2022-07-23T02:52:29;15.50;;;10.07;;
24567;SDS011;12731;52.182;8.716;2022-07-23T02:54:56;15.32;;;10.27;;
24567;SDS011;12731;52.182;8.716;2022-07-23T02:57:22;16.15;;;10.95;;
24567;SDS011;12731;52.182;8.716;2022-07-23T02:59:49;12.85;;;10.88;;
24567;SDS011;12731;52.182;8.716;2022-07-23T03:02:15;13.95;;;11.35;;
24567;SDS011;12731;52.182;8.716;2022-07-23T03:04:41;12.63;;;9.57;;
24567;SDS011;12731;52.182;8.716;2022-07-23T03:07:08;13.75;;;10.70;;
24567;SDS011;12731;52.182;8.716;2022-07-23T03:09:35;16.35;;;10.68;;
24567;SDS011;12731;52.182;8.716;2022-07-23T03:12:01;16.05;;;11.60;;
24567;SDS011;12731;52.182;8.716;2022-07-23T03:14:28;13.48;;;11.10;;
24567;SDS011;12731;52.182;8.716;2022-07-23T03:16:54;15.98;;;10.82;;
24567;SDS011;12731;52.182;8.716;2022-07-23T03:19:21;15.75;;;11.60;;
24567;SDS011;12731;52.182;8.716;2022-07-23T03:21:47;17.50;;;11.70;;
24567;SDS011;12731;52.182;8.716;2022-07-23T03:24:14;14.98;;;12.05;;
24567;SDS011;12731;52.182;8.716;2022-07-23T03:26:40;21.48;;;12.25;;
24567;SDS011;12731;52.182;8.716;2022-07-23T03:29:06;16.77;;;12.65;;
24567;SDS011;12731;52.182;8.716;2022-07-23T03:31:33;13.50;;;11.75;;
24567;SDS011;12731;52.182;8.716;2022-07-23T03:34:00;14.38;;;12.00;;
24567;SDS011;12731;52.182;8.716;2022-07-23T03:36:26;14.38;;;11.95;;
24567;SDS011;12731;52.182;8.716;2022-07-23T03:38:53;16.52;;;12.63;;
24567;SDS011;12731;52.182;8.716;2022-07-23T03:41:20;14.05;;;12.43;;
24567;SDS011;12731;52.182;8.716;2022-07-23T03:43:46;14.80;;;12.48;;
24567;SDS011;12731;52.182;8.716;2022-07-23T03:46:13;19.10;;;13.40;;
24567;SDS011;12731;52.182;8.716;2022-07-23T03:48:40;16.48;;;11.98;;
24567;SDS011;12731;52.182;8.716;2022-07-23T03:51:06;17.45;;;13.13;;
24567;SDS011;12731;52.182;8.716;2022-07-23T03:53:33;15.35;;;12.65;;
24567;SDS011;12731;52.182;8.716;2022-07-23T03:56:00;19.65;;;13.15;;
24567;SDS011;12731;52.182;8.716;2022-07-23T03:58:26;20.77;;;12.82;;
24567;SDS011;12731;52.182;8.716;2022-07-23T04:00:53;15.68;;;12.35;;
24567;SDS011;12731;52.182;8.716;2022-07-23T04:07:06;13.27;;;10.73;;
24567;SDS011;12731;52.182;8.716;2022-07-23T04:09:33;18.08;;;12.07;;
24567;SDS011;12731;52.182;8.716;2022-07-23T04:12:00;11.82;;;10.63;;
24567;SDS011;12731;52.182;8.716;2022-07-23T04:14:27;16.00;;;11.80;;
24567;SDS011;12731;52.182;8.716;2022-07-23T04:16:53;17.35;;;11.93;;
24567;SDS011;12731;52.182;8.716;2022-07-23T04:19:20;16.17;;;11.50;;
24567;SDS011;12731;52.182;8.716;2022-07-23T04:21:46;14.98;;;12.35;;
24567;SDS011;12731;52.182;8.716;2022-07-23T04:24:13;15.70;;;11.93;;
24567;SDS011;12731;52.182;8.716;2022-07-23T04:26:39;13.98;;;11.95;;
24567;SDS011;12731;52.182;8.716;2022-07-23T04:29:06;14.07;;;11.75;;
24567;SDS011;12731;52.182;8.716;2022-07-23T04:31:32;17.83;;;11.45;;
24567;SDS011;12731;52.182;8.716;2022-07-23T04:34:02;13.40;;;11.48;;
24567;SDS011;12731;52.182;8.716;2022-07-23T04:36:29;11.43;;;10.32;;
24567;SDS011;12731;52.182;8.716;2022-07-23T04:38:55;15.30;;;12.05;;
24567;SDS011;12731;52.182;8.716;2022-07-23T04:41:22;14.60;;;12.43;;
24567;SDS011;12731;52.182;8.716;2022-07-23T04:43:48;15.80;;;11.63;;
24567;SDS011;12731;52.182;8.716;2022-07-23T04:46:15;12.68;;;10.45;;
24567;SDS011;12731;52.182;8.716;2022-07-23T04:48:42;12.80;;;11.50;;
24567;SDS011;12731;52.182;8.716;2022-07-23T04:51:09;15.00;;;11.60;;
24567;SDS011;12731;52.182;8.716;2022-07-23T04:53:36;13.70;;;10.55;;
24567;SDS011;12731;52.182;8.716;2022-07-23T04:56:04;12.75;;;11.43;;
24567;SDS011;12731;52.182;8.716;2022-07-23T04:58:31;12.73;;;11.52;;
24567;SDS011;12731;52.182;8.716;2022-07-23T05:00:57;15.77;;;11.63;;
24567;SDS011;12731;52.182;8.716;2022-07-23T05:03:24;14.52;;;11.90;;
24567;SDS011;12731;52.182;8.716;2022-07-23T05:05:50;15.18;;;12.00;;
24567;SDS011;12731;52.182;8.716;2022-07-23T05:08:17;16.85;;;12.50;;
24567;SDS011;12731;52.182;8.716;2022-07-23T05:10:43;15.00;;;12.60;;
24567;SDS011;12731;52.182;8.716;2022-07-23T05:13:10;17.27;;;12.45;;
24567;SDS011;12731;52.182;8.716;2022-07-23T05:15:36;17.63;;;12.82;;
24567;SDS011;12731;52.182;8.716;2022-07-23T05:18:03;17.90;;;11.63;;
24567;SDS011;12731;52.182;8.716;2022-07-23T05:20:29;18.02;;;12.68;;
24567;SDS011;12731;52.182;8.716;2022-07-23T05:22:56;17.10;;;11.68;;
24567;SDS011;12731;52.182;8.716;2022-07-23T05:25:22;16.15;;;12.13;;
24567;SDS011;12731;52.182;8.716;2022-07-23T05:27:48;15.52;;;11.55;;
24567;SDS011;12731;52.182;8.716;2022-07-23T05:30:15;15.50;;;11.60;;
24567;SDS011;12731;52.182;8.716;2022-07-23T05:32:41;15.00;;;12.30;;
24567;SDS011;12731;52.182;8.716;2022-07-23T05:35:08;14.10;;;11.90;;
24567;SDS011;12731;52.182;8.716;2022-07-23T05:37:34;14.50;;;11.45;;
24567;SDS011;12731;52.182;8.716;2022-07-23T05:40:02;16.17;;;11.98;;
24567;SDS011;12731;52.182;8.716;2022-07-23T05:42:29;17.45;;;11.10;;
24567;SDS011;12731;52.182;8.716;2022-07-23T05:44:55;16.08;;;11.82;;
24567;SDS011;12731;52.182;8.716;2022-07-23T05:47:22;20.98;;;12.65;;
24567;SDS011;12731;52.182;8.716;2022-07-23T05:49:48;16.40;;;12.65;;
24567;SDS011;12731;52.182;8.716;2022-07-23T05:52:15;14.20;;;11.00;;
24567;SDS011;12731;52.182;8.716;2022-07-23T05:54:41;16.30;;;12.13;;
24567;SDS011;12731;52.182;8.716;2022-07-23T05:57:08;15.63;;;12.43;;
24567;SDS011;12731;52.182;8.716;2022-07-23T05:59:34;15.18;;;12.00;;
24567;SDS011;12731;52.182;8.716;2022-07-23T06:02:01;15.80;;;12.48;;
24567;SDS011;12731;52.182;8.716;2022-07-23T06:04:27;20.05;;;12.40;;
24567;SDS011;12731;52.182;8.716;2022-07-23T06:06:54;15.98;;;12.50;;
24567;SDS011;12731;52.182;8.716;2022-07-23T06:09:20;15.18;;;11.80;;
24567;SDS011;12731;52.182;8.716;2022-07-23T06:11:46;15.75;;;12.02;;
24567;SDS011;12731;52.182;8.716;2022-07-23T06:14:13;17.42;;;12.50;;
24567;SDS011;12731;52.182;8.716;2022-07-23T06:16:39;12.98;;;11.68;;
24567;SDS011;12731;52.182;8.716;2022-07-23T06:19:06;17.05;;;11.65;;
24567;SDS011;12731;52.182;8.716;2022-07-23T06:21:32;13.13;;;10.98;;
24567;SDS011;12731;52.182;8.716;2022-07-23T06:24:14;13.63;;;10.90;;
24567;SDS011;12731;52.182;8.716;2022-07-23T06:26:40;14.32;;;10.20;;
24567;SDS011;12731;52.182;8.716;2022-07-23T06:29:07;11.60;;;10.23;;
24567;SDS011;12731;52.182;8.716;2022-07-23T06:31:33;12.57;;;10.27;;
24567;SDS011;12731;52.182;8.716;2022-07-23T06:34:00;13.68;;;9.55;;
24567;SDS011;12731;52.182;8.716;2022-07-23T06:36:27;11.18;;;9.20;;
24567;SDS011;12731;52.182;8.716;2022-07-23T06:38:54;8.43;;;7.35;;
24567;SDS011;12731;52.182;8.716;2022-07-23T06:41:20;11.27;;;7.07;;
24567;SDS011;12731;52.182;8.716;2022-07-23T06:43:48;9.75;;;8.10;;
24567;SDS011;12731;52.182;8.716;2022-07-23T06:46:15;10.02;;;8.35;;
24567;SDS011;12731;52.182;8.716;2022-07-23T06:48:41;10.77;;;8.07;;
24567;SDS011;12731;52.182;8.716;2022-07-23T06:51:08;10.48;;;8.90;;
24567;SDS011;12731;52.182;8.716;2022-07-23T06:53:34;9.25;;;7.75;;
24567;SDS011;12731;52.182;8.716;2022-07-23T06:56:01;9.65;;;7.63;;
24567;SDS011;12731;52.182;8.716;2022-07-23T06:58:27;10.27;;;6.80;;
24567;SDS011;12731;52.182;8.716;2022-07-23T07:00:54;10.80;;;7.57;;
24567;SDS011;12731;52.182;8.716;2022-07-23T07:03:20;8.68;;;5.75;;
24567;SDS011;12731;52.182;8.716;2022-07-23T07:05:46;7.22;;;5.85;;
24567;SDS011;12731;52.182;8.716;2022-07-23T07:08:13;9.52;;;5.50;;
24567;SDS011;12731;52.182;8.716;2022-07-23T07:10:39;8.25;;;5.95;;
24567;SDS011;12731;52.182;8.716;2022-07-23T07:13:06;9.93;;;6.20;;
24567;SDS011;12731;52.182;8.716;2022-07-23T07:15:32;7.95;;;5.22;;
24567;SDS011;12731;52.182;8.716;2022-07-23T07:17:59;6.53;;;5.03;;
24567;SDS011;12731;52.182;8.716;2022-07-23T07:20:25;6.35;;;4.45;;
24567;SDS011;12731;52.182;8.716;2022-07-23T07:22:52;6.57;;;4.00;;
24567;SDS011;12731;52.182;8.716;2022-07-23T07:25:18;7.25;;;3.90;;
24567;SDS011;12731;52.182;8.716;2022-07-23T07:27:45;8.65;;;4.28;;
24567;SDS011;12731;52.182;8.716;2022-07-23T07:30:11;7.57;;;4.25;;
24567;SDS011;12731;52.182;8.716;2022-07-23T07:32:38;6.55;;;4.32;;
24567;SDS011;12731;52.182;8.716;2022-07-23T07:35:22;6.60;;;4.22;;
24567;SDS011;12731;52.182;8.716;2022-07-23T07:37:48;8.27;;;3.95;;
24567;SDS011;12731;52.182;8.716;2022-07-23T07:40:15;5.13;;;3.95;;
24567;SDS011;12731;52.182;8.716;2022-07-23T07:42:47;6.38;;;3.63;;
24567;SDS011;12731;52.182;8.716;2022-07-23T07:45:15;5.18;;;3.70;;
24567;SDS011;12731;52.182;8.716;2022-07-23T07:47:42;6.97;;;3.97;;
24567;SDS011;12731;52.182;8.716;2022-07-23T07:50:08;6.20;;;4.07;;
24567;SDS011;12731;52.182;8.716;2022-07-23T07:52:37;5.93;;;3.85;;
24567;SDS011;12731;52.182;8.716;2022-07-23T07:55:04;6.00;;;3.90;;
24567;SDS011;12731;52.182;8.716;2022-07-23T07:57:32;6.75;;;4.53;;
24567;SDS011;12731;52.182;8.716;2022-07-23T07:59:59;6.53;;;4.70;;
24567;SDS011;12731;52.182;8.716;2022-07-23T08:05:12;6.63;;;3.88;;
24567;SDS011;12731;52.182;8.716;2022-07-23T08:07:38;5.65;;;3.92;;
24567;SDS011;12731;52.182;8.716;2022-07-23T08:10:06;5.03;;;3.70;;
24567;SDS011;12731;52.182;8.716;2022-07-23T08:12:38;7.20;;;3.88;;
24567;SDS011;12731;52.182;8.716;2022-07-23T08:15:07;4.93;;;3.60;;
24567;SDS011;12731;52.182;8.716;2022-07-23T08:17:39;4.10;;;3.30;;
24567;SDS011;12731;52.182;8.716;2022-07-23T08:20:06;3.92;;;3.30;;
24567;SDS011;12731;52.182;8.716;2022-07-23T08:22:46;6.13;;;3.38;;
24567;SDS011;12731;52.182;8.716;2022-07-23T08:25:14;3.55;;;3.20;;
24567;SDS011;12731;52.182;8.716;2022-07-23T08:27:42;5.85;;;3.47;;
24567;SDS011;12731;52.182;8.716;2022-07-23T08:30:09;6.47;;;3.72;;
24567;SDS011;12731;52.182;8.716;2022-07-23T08:35:15;5.20;;;3.10;;
24567;SDS011;12731;52.182;8.716;2022-07-23T08:37:41;5.63;;;3.60;;
24567;SDS011;12731;52.182;8.716;2022-07-23T08:40:08;4.72;;;3.25;;
24567;SDS011;12731;52.182;8.716;2022-07-23T08:42:35;6.30;;;3.67;;
24567;SDS011;12731;52.182;8.716;2022-07-23T08:45:02;4.47;;;3.72;;
24567;SDS011;12731;52.182;8.716;2022-07-23T08:47:29;5.63;;;4.03;;
24567;SDS011;12731;52.182;8.716;2022-07-23T08:49:56;5.32;;;3.50;;
24567;SDS011;12731;52.182;8.716;2022-07-23T08:52:24;6.97;;;3.58;;
24567;SDS011;12731;52.182;8.716;2022-07-23T08:54:53;4.13;;;3.10;;
24567;SDS011;12731;52.182;8.716;2022-07-23T08:57:20;4.43;;;3.45;;
24567;SDS011;12731;52.182;8.716;2022-07-23T08:59:47;4.75;;;3.25;;
24567;SDS011;12731;52.182;8.716;2022-07-23T09:02:13;4.85;;;3.10;;
24567;SDS011;12731;52.182;8.716;2022-07-23T09:04:40;5.47;;;3.10;;
24567;SDS011;12731;52.182;8.716;2022-07-23T09:07:06;3.95;;;2.72;;
24567;SDS011;12731;52.182;8.716;2022-07-23T09:09:33;4.00;;;2.63;;
24567;SDS011;12731;52.182;8.716;2022-07-23T09:12:03;5.35;;;2.40;;
24567;SDS011;12731;52.182;8.716;2022-07-23T09:14:36;5.18;;;3.15;;
24567;SDS011;12731;52.182;8.716;2022-07-23T09:19:36;4.28;;;2.30;;
24567;SDS011;12731;52.182;8.716;2022-07-23T09:22:22;4.38;;;2.35;;
24567;SDS011;12731;52.182;8.716;2022-07-23T09:25:03;4.15;;;2.13;;
24567;SDS011;12731;52.182;8.716;2022-07-23T09:27:51;3.80;;;1.83;;
24567;SDS011;12731;52.182;8.716;2022-07-23T09:30:24;5.00;;;2.22;;
24567;SDS011;12731;52.182;8.716;2022-07-23T09:33:03;3.75;;;2.05;;
24567;SDS011;12731;52.182;8.716;2022-07-23T09:35:46;2.33;;;1.90;;
24567;SDS011;12731;52.182;8.716;2022-07-23T09:38:15;2.67;;;2.10;;
24567;SDS011;12731;52.182;8.716;2022-07-23T09:40:43;2.63;;;1.50;;
24567;SDS011;12731;52.182;8.716;2022-07-23T09:43:11;3.42;;;1.75;;
24567;SDS011;12731;52.182;8.716;2022-07-23T09:45:38;2.53;;;1.77;;
24567;SDS011;12731;52.182;8.716;2022-07-23T09:50:39;3.05;;;1.58;;
24567;SDS011;12731;52.182;8.716;2022-07-23T09:53:06;4.10;;;1.80;;
24567;SDS011;12731;52.182;8.716;2022-07-23T09:55:34;3.58;;;1.75;;
24567;SDS011;12731;52.182;8.716;2022-07-23T09:58:03;3.58;;;1.85;;
24567;SDS011;12731;52.182;8.716;2022-07-23T10:00:30;3.03;;;1.73;;
24567;SDS011;12731;52.182;8.716;2022-07-23T10:02:57;1.65;;;1.40;;
24567;SDS011;12731;52.182;8.716;2022-07-23T10:05:24;9.65;;;2.28;;
24567;SDS011;12731;52.182;8.716;2022-07-23T10:07:51;4.50;;;1.90;;
24567;SDS011;12731;52.182;8.716;2022-07-23T10:10:18;3.97;;;1.90;;
24567;SDS011;12731;52.182;8.716;2022-07-23T10:12:47;2.75;;;1.85;;
24567;SDS011;12731;52.182;8.716;2022-07-23T10:15:17;5.05;;;1.70;;
24567;SDS011;12731;52.182;8.716;2022-07-23T10:17:43;3.60;;;1.65;;
24567;SDS011;12731;52.182;8.716;2022-07-23T10:20:10;3.92;;;1.77;;
24567;SDS011;12731;52.182;8.716;2022-07-23T10:22:37;5.00;;;2.05;;
24567;SDS011;12731;52.182;8.716;2022-07-23T10:33:41;3.83;;;1.90;;
24567;SDS011;12731;52.182;8.716;2022-07-23T10:36:20;4.32;;;1.80;;
24567;SDS011;12731;52.182;8.716;2022-07-23T10:39:05;3.65;;;1.77;;
24567;SDS011;12731;52.182;8.716;2022-07-23T10:41:35;3.92;;;1.40;;
24567;SDS011;12731;52.182;8.716;2022-07-23T10:44:05;3.92;;;1.77;;
24567;SDS011;12731;52.182;8.716;2022-07-23T10:46:59;2.40;;;1.60;;
24567;SDS011;12731;52.182;8.716;2022-07-23T10:49:39;2.60;;;1.77;;
24567;SDS011;12731;52.182;8.716;2022-07-23T10:54:40;3.10;;;1.45;;
24567;SDS011;12731;52.182;8.716;2022-07-23T10:57:07;3.30;;;1.60;;
24567;SDS011;12731;52.182;8.716;2022-07-23T11:02:36;3.08;;;1.60;;
24567;SDS011;12731;52.182;8.716;2022-07-23T11:05:07;5.07;;;1.55;;
24567;SDS011;12731;52.182;8.716;2022-07-23T11:10:49;2.87;;;1.30;;
24567;SDS011;12731;52.182;8.716;2022-07-23T11:13:42;3.45;;;1.60;;
24567;SDS011;12731;52.182;8.716;2022-07-23T11:16:12;2.85;;;1.58;;
24567;SDS011;12731;52.182;8.716;2022-07-23T11:31:56;2.83;;;1.30;;
24567;SDS011;12731;52.182;8.716;2022-07-23T11:34:32;4.05;;;1.30;;
24567;SDS011;12731;52.182;8.716;2022-07-23T11:37:03;2.92;;;1.48;;
24567;SDS011;12731;52.182;8.716;2022-07-23T11:39:30;3.70;;;1.27;;
24567;SDS011;12731;52.182;8.716;2022-07-23T11:41:58;2.63;;;1.50;;
24567;SDS011;12731;52.182;8.716;2022-07-23T11:44:26;2.85;;;1.60;;
24567;SDS011;12731;52.182;8.716;2022-07-23T11:46:59;3.45;;;1.38;;
24567;SDS011;12731;52.182;8.716;2022-07-23T11:49:26;2.35;;;1.30;;
24567;SDS011;12731;52.182;8.716;2022-07-23T11:54:49;4.68;;;1.33;;
24567;SDS011;12731;52.182;8.716;2022-07-23T11:57:21;2.25;;;1.00;;
24567;SDS011;12731;52.182;8.716;2022-07-23T11:59:51;2.67;;;1.05;;
24567;SDS011;12731;52.182;8.716;2022-07-23T12:02:20;2.85;;;1.50;;
24567;SDS011;12731;52.182;8.716;2022-07-23T12:04:48;2.47;;;1.30;;
24567;SDS011;12731;52.182;8.716;2022-07-23T12:07:34;2.13;;;1.25;;
24567;SDS011;12731;52.182;8.716;2022-07-23T12:10:10;1.60;;;1.08;;
24567;SDS011;12731;52.182;8.716;2022-07-23T12:12:40;2.25;;;1.38;;
24567;SDS011;12731;52.182;8.716;2022-07-23T12:15:12;1.80;;;1.10;;
24567;SDS011;12731;52.182;8.716;2022-07-23T12:17:40;2.47;;;1.27;;
24567;SDS011;12731;52.182;8.716;2022-07-23T12:20:12;1.05;;;0.90;;
24567;SDS011;12731;52.182;8.716;2022-07-23T12:22:41;2.75;;;1.35;;
24567;SDS011;12731;52.182;8.716;2022-07-23T12:25:11;2.35;;;1.40;;
24567;SDS011;12731;52.182;8.716;2022-07-23T12:27:57;2.05;;;1.20;;
24567;SDS011;12731;52.182;8.716;2022-07-23T12:33:04;2.67;;;1.40;;
24567;SDS011;12731;52.182;8.716;2022-07-23T12:35:33;2.47;;;1.00;;
24567;SDS011;12731;52.182;8.716;2022-07-23T12:38:04;2.60;;;1.25;;
24567;SDS011;12731;52.182;8.716;2022-07-23T12:40:33;2.55;;;1.40;;
24567;SDS011;12731;52.182;8.716;2022-07-23T12:43:03;2.83;;;1.42;;
24567;SDS011;12731;52.182;8.716;2022-07-23T12:45:41;3.33;;;1.20;;
24567;SDS011;12731;52.182;8.716;2022-07-23T12:48:20;2.75;;;1.20;;
24567;SDS011;12731;52.182;8.716;2022-07-23T12:51:01;4.03;;;1.40;;
24567;SDS011;12731;52.182;8.716;2022-07-23T12:53:38;1.92;;;1.20;;
24567;SDS011;12731;52.182;8.716;2022-07-23T12:56:08;2.60;;;1.17;;
24567;SDS011;12731;52.182;8.716;2022-07-23T12:58:51;2.47;;;1.27;;
24567;SDS011;12731;52.182;8.716;2022-07-23T13:01:24;2.35;;;0.90;;
24567;SDS011;12731;52.182;8.716;2022-07-23T13:06:35;1.52;;;1.10;;
24567;SDS011;12731;52.182;8.716;2022-07-23T13:09:06;2.35;;;1.10;;
24567;SDS011;12731;52.182;8.716;2022-07-23T13:11:34;3.15;;;1.42;;
24567;SDS011;12731;52.182;8.716;2022-07-23T13:14:01;4.28;;;1.10;;
24567;SDS011;12731;52.182;8.716;2022-07-23T13:16:28;2.72;;;1.15;;
24567;SDS011;12731;52.182;8.716;2022-07-23T13:18:56;1.55;;;0.93;;
24567;SDS011;12731;52.182;8.716;2022-07-23T13:21:24;1.58;;;1.10;;
24567;SDS011;12731;52.182;8.716;2022-07-23T13:23:52;2.25;;;1.15;;
24567;SDS011;12731;52.182;8.716;2022-07-23T13:26:19;3.50;;;0.90;;
24567;SDS011;12731;52.182;8.716;2022-07-23T13:28:47;2.90;;;1.10;;
24567;SDS011;12731;52.182;8.716;2022-07-23T13:31:14;1.60;;;0.85;;
24567;SDS011;12731;52.182;8.716;2022-07-23T13:33:41;1.98;;;0.90;;
24567;SDS011;12731;52.182;8.716;2022-07-23T13:36:08;3.00;;;1.00;;
24567;SDS011;12731;52.182;8.716;2022-07-23T13:38:35;2.20;;;1.00;;
24567;SDS011;12731;52.182;8.716;2022-07-23T13:41:02;1.85;;;1.00;;
24567;SDS011;12731;52.182;8.716;2022-07-23T13:43:31;2.88;;;1.00;;
24567;SDS011;12731;52.182;8.716;2022-07-23T13:46:01;1.35;;;1.02;;
24567;SDS011;12731;52.182;8.716;2022-07-23T13:48:28;2.63;;;1.10;;
24567;SDS011;12731;52.182;8.716;2022-07-23T13:50:55;1.63;;;0.80;;
24567;SDS011;12731;52.182;8.716;2022-07-23T13:53:23;1.08;;;0.80;;
24567;SDS011;12731;52.182;8.716;2022-07-23T13:55:51;3.00;;;1.20;;
24567;SDS011;12731;52.182;8.716;2022-07-23T13:58:20;1.50;;;0.80;;
24567;SDS011;12731;52.182;8.716;2022-07-23T14:00:51;3.45;;;1.00;;
24567;SDS011;12731;52.182;8.716;2022-07-23T14:03:19;1.48;;;0.80;;
24567;SDS011;12731;52.182;8.716;2022-07-23T14:05:49;1.38;;;0.80;;
24567;SDS011;12731;52.182;8.716;2022-07-23T14:08:17;1.40;;;0.80;;
24567;SDS011;12731;52.182;8.716;2022-07-23T14:10:47;4.55;;;1.08;;
24567;SDS011;12731;52.182;8.716;2022-07-23T14:13:13;2.00;;;1.00;;
24567;SDS011;12731;52.182;8.716;2022-07-23T14:15:41;3.08;;;1.02;;
24567;SDS011;12731;52.182;8.716;2022-07-23T14:18:08;1.98;;;1.00;;
24567;SDS011;12731;52.182;8.716;2022-07-23T14:20:35;1.95;;;0.80;;
24567;SDS011;12731;52.182;8.716;2022-07-23T14:23:02;3.00;;;1.10;;
24567;SDS011;12731;52.182;8.716;2022-07-23T14:25:31;1.63;;;0.90;;
24567;SDS011;12731;52.182;8.716;2022-07-23T14:27:57;1.85;;;1.08;;
24567;SDS011;12731;52.182;8.716;2022-07-23T14:30:24;1.67;;;0.70;;
24567;SDS011;12731;52.182;8.716;2022-07-23T14:32:57;3.17;;;1.10;;
24567;SDS011;12731;52.182;8.716;2022-07-23T14:35:23;1.60;;;0.90;;
24567;SDS011;12731;52.182;8.716;2022-07-23T14:37:50;1.50;;;1.10;;
24567;SDS011;12731;52.182;8.716;2022-07-23T14:40:16;0.98;;;0.82;;
24567;SDS011;12731;52.182;8.716;2022-07-23T14:42:43;2.70;;;0.95;;
24567;SDS011;12731;52.182;8.716;2022-07-23T14:45:09;1.00;;;0.77;;
24567;SDS011;12731;52.182;8.716;2022-07-23T14:47:36;1.77;;;1.10;;
24567;SDS011;12731;52.182;8.716;2022-07-23T14:50:05;1.88;;;1.02;;
24567;SDS011;12731;52.182;8.716;2022-07-23T14:52:32;1.98;;;0.90;;
24567;SDS011;12731;52.182;8.716;2022-07-23T14:54:58;1.92;;;1.00;;
24567;SDS011;12731;52.182;8.716;2022-07-23T14:57:25;1.23;;;0.90;;
24567;SDS011;12731;52.182;8.716;2022-07-23T14:59:53;1.63;;;0.70;;
24567;SDS011;12731;52.182;8.716;2022-07-23T15:02:21;1.67;;;1.00;;
24567;SDS011;12731;52.182;8.716;2022-07-23T15:04:47;2.10;;;0.82;;
24567;SDS011;12731;52.182;8.716;2022-07-23T15:07:14;2.05;;;0.93;;
24567;SDS011;12731;52.182;8.716;2022-07-23T15:09:40;2.38;;;1.10;;
24567;SDS011;12731;52.182;8.716;2022-07-23T15:12:07;1.38;;;0.90;;
24567;SDS011;12731;52.182;8.716;2022-07-23T15:14:38;2.30;;;0.90;;
24567;SDS011;12731;52.182;8.716;2022-07-23T15:17:04;1.17;;;0.90;;
24567;SDS011;12731;52.182;8.716;2022-07-23T15:19:31;0.93;;;0.80;;
24567;SDS011;12731;52.182;8.716;2022-07-23T15:21:57;1.92;;;1.27;;
24567;SDS011;12731;52.182;8.716;2022-07-23T15:24:27;3.80;;;1.20;;
24567;SDS011;12731;52.182;8.716;2022-07-23T15:26:53;2.05;;;1.10;;
24567;SDS011;12731;52.182;8.716;2022-07-23T15:29:20;1.23;;;0.90;;
24567;SDS011;12731;52.182;8.716;2022-07-23T15:31:46;3.05;;;0.90;;
24567;SDS011;12731;52.182;8.716;2022-07-23T15:34:16;0.90;;;0.80;;
24567;SDS011;12731;52.182;8.716;2022-07-23T15:36:43;1.27;;;0.90;;